createdAt,value
2018-03-11T00:00:54.399Z,99383.50
2018-03-11T00:03:22.001Z,99382.28
2018-03-11T00:05:49.687Z,99386.42
2018-03-11T00:08:17.327Z,99392.05
2018-03-11T00:10:45.083Z,99389.27
2018-03-11T00:13:12.683Z,99385.88
2018-03-11T00:15:40.331Z,99395.64
2018-03-11T00:18:07.922Z,99395.67
2018-03-11T00:20:35.578Z,99387.78
2018-03-11T00:23:03.192Z,99387.58
2018-03-11T00:25:30.820Z,99386.34
2018-03-11T00:27:58.445Z,99387.73
2018-03-11T00:30:26.083Z,99378.19
2018-03-11T00:32:53.694Z,99383.04
2018-03-11T00:35:21.334Z,99374.73
2018-03-11T00:37:48.960Z,99379.79
2018-03-11T00:40:16.608Z,99366.53
2018-03-11T00:42:44.218Z,99359.34
2018-03-11T00:45:11.871Z,99359.41
2018-03-11T00:47:39.471Z,99360.07
2018-03-11T00:50:07.085Z,99343.09
2018-03-11T00:52:34.717Z,99340.63
2018-03-11T00:55:02.329Z,99336.28
2018-03-11T00:57:29.969Z,99334.32
2018-03-11T00:59:57.570Z,99327.88
2018-03-11T01:02:25.247Z,99327.30
2018-03-11T01:04:52.923Z,99318.38
2018-03-11T01:07:20.557Z,99319.93
2018-03-11T01:09:48.144Z,99324.41
2018-03-11T01:12:15.764Z,99328.28
2018-03-11T01:14:43.364Z,99328.95
2018-03-11T01:17:11.201Z,99328.54
2018-03-11T01:19:38.786Z,99324.21
2018-03-11T01:22:06.413Z,99322.61
2018-03-11T01:24:34.063Z,99310.29
2018-03-11T01:27:01.692Z,99305.91
2018-03-11T01:29:29.298Z,99311.25
2018-03-11T01:31:56.943Z,99308.63
2018-03-11T01:34:24.593Z,99303.41
2018-03-11T01:36:52.227Z,99298.00
2018-03-11T01:39:19.838Z,99295.88
2018-03-11T01:41:47.495Z,99290.52
2018-03-11T01:44:15.095Z,99283.82
2018-03-11T01:46:42.727Z,99280.66
2018-03-11T01:49:10.323Z,99282.61
2018-03-11T01:51:38.038Z,99274.58
2018-03-11T01:54:05.658Z,99270.69
2018-03-11T01:56:33.274Z,99262.95
2018-03-11T01:59:00.866Z,99253.41
2018-03-11T02:01:28.513Z,99246.80
2018-03-11T02:03:56.110Z,99237.47
2018-03-11T02:06:23.739Z,99232.98
2018-03-11T02:08:51.326Z,99223.23
2018-03-11T02:11:18.959Z,99229.38
2018-03-11T02:13:46.557Z,99228.49
2018-03-11T02:16:14.194Z,99218.10
2018-03-11T02:18:41.795Z,99208.87
2018-03-11T02:21:14.217Z,99203.56
2018-03-11T02:23:41.806Z,99209.59
2018-03-11T02:26:09.451Z,99203.21
2018-03-11T02:28:37.075Z,99192.34
2018-03-11T02:31:04.674Z,99181.20
2018-03-11T02:33:32.313Z,99177.33
2018-03-11T02:35:59.902Z,99178.05
2018-03-11T02:38:27.531Z,99170.56
2018-03-11T02:40:55.162Z,99163.38
2018-03-11T02:43:22.763Z,99169.27
2018-03-11T02:45:50.479Z,99168.69
2018-03-11T02:48:18.083Z,99171.72
2018-03-11T02:50:45.715Z,99161.23
2018-03-11T02:53:13.368Z,99156.94
2018-03-11T02:55:40.961Z,99157.77
2018-03-11T02:58:08.598Z,99154.99
2018-03-11T03:00:36.206Z,99137.26
2018-03-11T03:03:03.835Z,99138.05
2018-03-11T03:05:31.443Z,99128.50
2018-03-11T03:07:59.125Z,99127.31
2018-03-11T03:10:26.715Z,99129.33
2018-03-11T03:12:54.395Z,99129.63
2018-03-11T03:15:22.042Z,99139.78
2018-03-11T03:17:49.690Z,99145.13
2018-03-11T03:20:17.284Z,99140.12
2018-03-11T03:22:44.901Z,99136.16
2018-03-11T03:25:12.508Z,99126.73
2018-03-11T03:27:40.143Z,99125.92
2018-03-11T03:30:07.762Z,99125.09
2018-03-11T03:32:35.390Z,99111.02
2018-03-11T03:35:02.979Z,99107.11
2018-03-11T03:37:30.597Z,99105.92
2018-03-11T03:39:58.201Z,99090.89
2018-03-11T03:42:25.828Z,99086.83
2018-03-11T03:44:53.426Z,99085.16
2018-03-11T03:47:21.073Z,99081.91
2018-03-11T03:49:48.656Z,99071.92
2018-03-11T03:52:16.283Z,99072.89
2018-03-11T03:54:43.904Z,99074.33
2018-03-11T03:57:11.529Z,99074.25
2018-03-11T03:59:39.126Z,99058.44
2018-03-11T04:02:06.769Z,99065.39
2018-03-11T04:04:34.385Z,99064.25
2018-03-11T04:07:02.030Z,99061.58
2018-03-11T04:09:29.654Z,99054.75
2018-03-11T04:11:57.283Z,99042.55
2018-03-11T04:14:24.910Z,99042.44
2018-03-11T04:16:52.518Z,99034.67
2018-03-11T04:19:20.150Z,99035.86
2018-03-11T04:21:47.745Z,99035.59
2018-03-11T04:24:15.376Z,99029.62
2018-03-11T04:26:42.971Z,99007.38
2018-03-11T04:29:10.610Z,98995.03
2018-03-11T04:31:38.219Z,98999.25
2018-03-11T04:34:05.840Z,98981.75
2018-03-11T04:36:33.434Z,98982.11
2018-03-11T04:39:01.058Z,98978.09
2018-03-11T04:41:28.682Z,98967.69
2018-03-11T04:43:56.306Z,98987.51
2018-03-11T04:46:23.918Z,98986.84
2018-03-11T04:48:51.545Z,98996.52
2018-03-11T04:51:19.157Z,99003.82
2018-03-11T04:53:46.790Z,99006.87
2018-03-11T04:56:14.408Z,99003.16
2018-03-11T04:58:42.037Z,98988.44
2018-03-11T05:01:09.642Z,98988.03
2018-03-11T05:03:37.267Z,98986.80
2018-03-11T05:06:04.873Z,98986.73
2018-03-11T05:08:32.644Z,98968.26
2018-03-11T05:11:00.241Z,98978.09
2018-03-11T05:13:27.888Z,98973.20
2018-03-11T05:15:55.530Z,98978.36
2018-03-11T05:18:23.161Z,98972.44
2018-03-11T05:20:50.898Z,98967.39
2018-03-11T05:23:18.529Z,98962.34
2018-03-11T05:25:46.122Z,98953.80
2018-03-11T05:28:13.770Z,98946.70
2018-03-11T05:30:41.374Z,98942.53
2018-03-11T05:33:08.995Z,98945.52
2018-03-11T05:35:36.598Z,98937.48
2018-03-11T05:38:04.285Z,98938.98
2018-03-11T05:40:31.878Z,98931.67
2018-03-11T05:42:59.507Z,98928.73
2018-03-11T05:45:27.113Z,98918.09
2018-03-11T05:47:54.814Z,98912.27
2018-03-11T05:50:22.418Z,98916.06
2018-03-11T05:52:50.054Z,98910.31
2018-03-11T05:55:17.676Z,98911.24
2018-03-11T05:57:45.319Z,98907.33
2018-03-11T06:00:12.930Z,98909.44
2018-03-11T06:02:40.550Z,98910.50
2018-03-11T06:05:08.193Z,98907.11
2018-03-11T06:07:35.816Z,98909.17
2018-03-11T06:10:03.414Z,98908.20
2018-03-11T06:12:31.045Z,98908.05
2018-03-11T06:14:58.646Z,98903.87
2018-03-11T06:17:26.254Z,98905.63
2018-03-11T06:19:53.858Z,98905.16
2018-03-11T06:22:21.527Z,98897.57
2018-03-11T06:24:49.119Z,98895.30
2018-03-11T06:27:16.758Z,98885.94
2018-03-11T06:29:44.389Z,98879.80
2018-03-11T06:32:12.009Z,98880.17
2018-03-11T06:34:40.414Z,98878.88
2018-03-11T06:37:08.028Z,98872.18
2018-03-11T06:39:35.657Z,98873.30
2018-03-11T06:42:03.286Z,98872.69
2018-03-11T06:44:30.931Z,98878.34
2018-03-11T06:46:58.529Z,98885.29
2018-03-11T06:49:26.271Z,98881.74
2018-03-11T06:51:53.873Z,98885.55
2018-03-11T06:54:21.525Z,98881.41
2018-03-11T06:56:49.171Z,98873.66
2018-03-11T06:59:16.797Z,98880.09
2018-03-11T07:01:44.394Z,98882.72
2018-03-11T07:04:12.085Z,98871.56
2018-03-11T07:06:40.197Z,98874.70
2018-03-11T07:09:07.867Z,98876.14
2018-03-11T07:11:35.471Z,98863.77
2018-03-11T07:14:03.106Z,98868.25
2018-03-11T07:16:30.706Z,98856.70
2018-03-11T07:18:58.453Z,98865.20
2018-03-11T07:21:26.049Z,98854.34
2018-03-11T07:23:53.654Z,98846.81
2018-03-11T07:26:21.323Z,98853.78
2018-03-11T07:28:48.933Z,98850.08
2018-03-11T07:31:16.573Z,98853.97
2018-03-11T07:33:44.173Z,98852.72
2018-03-11T07:36:11.805Z,98856.27
2018-03-11T07:38:39.418Z,98860.14
2018-03-11T07:41:07.037Z,98864.87
2018-03-11T07:43:34.642Z,98864.58
2018-03-11T07:46:02.347Z,98864.98
2018-03-11T07:48:29.944Z,98870.58
2018-03-11T07:50:57.589Z,98878.09
2018-03-11T07:53:25.235Z,98876.58
2018-03-11T07:55:52.861Z,98878.66
2018-03-11T07:58:20.499Z,98884.88
2018-03-11T08:00:48.128Z,98887.16
2018-03-11T08:03:15.726Z,98879.68
2018-03-11T08:05:43.359Z,98894.43
2018-03-11T08:08:10.979Z,98890.50
2018-03-11T08:10:38.634Z,98885.05
2018-03-11T08:13:06.249Z,98887.81
2018-03-11T08:15:33.863Z,98901.44
2018-03-11T08:18:01.505Z,98889.69
2018-03-11T08:20:29.137Z,98875.90
2018-03-11T08:22:56.726Z,98877.77
2018-03-11T08:25:24.357Z,98871.55
2018-03-11T08:27:51.946Z,98861.84
2018-03-11T08:30:19.599Z,98863.83
2018-03-11T08:32:47.342Z,98866.33
2018-03-11T08:35:14.971Z,98867.84
2018-03-11T08:37:42.572Z,98873.23
2018-03-11T08:40:10.187Z,98875.11
2018-03-11T08:42:37.794Z,98877.17
2018-03-11T08:45:05.420Z,98881.97
2018-03-11T08:47:33.047Z,98880.87
2018-03-11T08:50:00.687Z,98882.06
2018-03-11T08:52:28.410Z,98883.41
2018-03-11T08:54:56.097Z,98884.85
2018-03-11T08:57:23.729Z,98882.14
2018-03-11T08:59:51.371Z,98875.20
2018-03-11T09:02:18.974Z,98869.80
2018-03-11T09:04:46.753Z,98878.47
2018-03-11T09:07:14.372Z,98879.55
2018-03-11T09:09:42.125Z,98878.83
2018-03-11T09:12:09.730Z,98879.53
2018-03-11T09:14:37.386Z,98881.89
2018-03-11T09:17:05.039Z,98886.70
2018-03-11T09:19:32.747Z,98884.47
2018-03-11T09:22:00.349Z,98877.34
2018-03-11T09:24:27.971Z,98877.38
2018-03-11T09:26:55.554Z,98877.33
2018-03-11T09:29:23.226Z,98868.08
2018-03-11T09:31:50.814Z,98867.21
2018-03-11T09:34:18.606Z,98871.61
2018-03-11T09:36:46.203Z,98863.70
2018-03-11T09:39:13.806Z,98871.11
2018-03-11T09:41:41.422Z,98870.70
2018-03-11T09:44:09.025Z,98872.77
2018-03-11T09:46:36.751Z,98869.97
2018-03-11T09:49:04.401Z,98873.98
2018-03-11T09:51:31.990Z,98860.13
2018-03-11T09:53:59.618Z,98862.71
2018-03-11T09:56:27.230Z,98864.33
2018-03-11T09:58:54.869Z,98853.41
2018-03-11T10:01:22.474Z,98845.27
2018-03-11T10:03:50.059Z,98845.94
2018-03-11T10:06:17.670Z,98842.13
2018-03-11T10:08:45.286Z,98847.24
2018-03-11T10:11:12.905Z,98845.00
2018-03-11T10:13:40.504Z,98854.39
2018-03-11T10:16:08.123Z,98857.23
2018-03-11T10:18:35.731Z,98851.63
2018-03-11T10:21:03.354Z,98846.73
2018-03-11T10:23:31.050Z,98842.81
2018-03-11T10:25:58.667Z,98845.18
2018-03-11T10:28:26.263Z,98836.80
2018-03-11T10:30:53.881Z,98833.64
2018-03-11T10:33:21.521Z,98837.92
2018-03-11T10:35:49.161Z,98853.69
2018-03-11T10:38:16.830Z,98848.36
2018-03-11T10:40:44.578Z,98843.75
2018-03-11T10:43:12.188Z,98852.77
2018-03-11T10:45:39.815Z,98854.05
2018-03-11T10:48:07.757Z,98853.61
2018-03-11T10:50:35.918Z,98851.73
2018-03-11T10:53:03.691Z,98848.60
2018-03-11T10:55:31.294Z,98850.86
2018-03-11T10:57:58.922Z,98850.83
2018-03-11T11:00:27.297Z,98861.78
2018-03-11T11:27:04.538Z,98871.67
2018-03-11T11:29:32.263Z,98859.37
2018-03-11T11:31:59.942Z,98859.73
2018-03-11T11:34:27.794Z,98881.21
2018-03-11T11:36:55.394Z,98872.00
2018-03-11T11:39:23.027Z,98871.33
2018-03-11T11:41:50.672Z,98866.82
2018-03-11T11:44:18.283Z,98877.61
2018-03-11T11:46:45.954Z,98878.86
2018-03-11T11:49:13.554Z,98882.67
2018-03-11T11:51:41.202Z,98882.31
2018-03-11T11:54:08.794Z,98872.33
2018-03-11T11:56:36.415Z,98870.64
2018-03-11T11:59:04.080Z,98865.86
2018-03-11T12:01:31.698Z,98857.09
2018-03-11T12:03:59.309Z,98853.62
2018-03-11T12:06:27.021Z,98863.50
2018-03-11T12:08:54.620Z,98860.63
2018-03-11T12:11:22.221Z,98866.09
2018-03-11T12:13:49.874Z,98865.14
2018-03-11T12:16:17.602Z,98855.36
2018-03-11T12:18:45.226Z,98850.47
2018-03-11T12:21:12.868Z,98850.47
2018-03-11T12:23:40.469Z,98846.66
2018-03-11T12:26:08.086Z,98842.16
2018-03-11T12:28:35.666Z,98845.86
2018-03-11T12:31:03.318Z,98838.34
2018-03-11T12:33:30.905Z,98834.30
2018-03-11T12:35:58.531Z,98821.76
2018-03-11T12:38:26.173Z,98815.57
2018-03-11T12:40:53.813Z,98809.84
2018-03-11T12:43:21.406Z,98802.48
2018-03-11T12:45:49.178Z,98806.25
2018-03-11T12:48:16.776Z,98800.92
2018-03-11T12:50:44.395Z,98794.77
2018-03-11T12:53:12.010Z,98794.23
2018-03-11T12:55:39.636Z,98787.48
2018-03-11T12:58:07.329Z,98784.98
2018-03-11T14:24:21.321Z,98760.89
2018-03-11T14:26:48.921Z,98768.48
2018-03-11T14:29:16.539Z,98764.50
2018-03-11T14:31:44.130Z,98757.69
2018-03-11T14:34:11.780Z,98770.83
2018-03-11T14:36:39.391Z,98756.16
2018-03-11T14:39:07.005Z,98760.28
2018-03-11T14:41:34.587Z,98760.39
2018-03-11T14:44:02.198Z,98754.22
2018-03-11T14:46:29.802Z,98767.27
2018-03-11T14:48:57.671Z,98763.45
2018-03-11T14:51:25.260Z,98753.81
2018-03-11T14:53:52.893Z,98766.00
2018-03-11T14:56:20.622Z,98754.91
2018-03-11T14:58:48.251Z,98749.78
2018-03-11T15:01:15.876Z,98748.52
2018-03-11T15:03:43.565Z,98752.03
2018-03-11T15:06:11.319Z,98754.33
2018-03-11T15:08:39.321Z,98750.33
2018-03-11T15:11:06.988Z,98756.55
2018-03-11T15:13:34.658Z,98756.55
2018-03-11T15:16:02.305Z,98757.67
2018-03-11T15:18:29.992Z,98758.63
2018-03-11T15:20:57.641Z,98756.34
2018-03-11T15:23:25.441Z,98763.03
2018-03-11T15:25:53.058Z,98759.33
2018-03-11T15:28:20.679Z,98766.00
2018-03-11T15:30:48.263Z,98755.75
2018-03-11T15:33:15.870Z,98743.39
2018-03-11T15:35:43.463Z,98741.41
2018-03-11T15:38:11.108Z,98748.03
2018-03-11T15:40:38.698Z,98739.36
2018-03-11T15:43:06.343Z,98741.83
2018-03-11T15:45:34.063Z,98736.77
2018-03-11T15:48:01.753Z,98732.60
2018-03-11T15:50:29.428Z,98731.13
2018-03-11T15:52:57.070Z,98724.73
2018-03-11T15:55:24.758Z,98727.68
2018-03-11T15:57:52.401Z,98730.01
2018-03-11T16:00:19.983Z,98728.08
2018-03-11T16:02:47.638Z,98722.39
2018-03-11T16:05:15.240Z,98723.27
2018-03-11T16:07:42.888Z,98721.91
2018-03-11T16:10:10.498Z,98727.15
2018-03-11T16:12:38.101Z,98724.69
2018-03-11T16:15:05.802Z,98723.16
2018-03-11T16:17:33.383Z,98724.91
2018-03-11T16:20:01.094Z,98727.02
2018-03-11T16:22:28.740Z,98724.81
2018-03-11T16:24:56.444Z,98728.20
2018-03-11T16:27:24.042Z,98728.72
2018-03-11T16:29:51.697Z,98730.02
2018-03-11T16:32:20.170Z,98731.31
2018-03-11T16:34:48.748Z,98731.42
2018-03-11T16:37:16.523Z,98733.70
2018-03-11T16:39:45.099Z,98720.49
2018-03-11T16:42:12.732Z,98725.06
2018-03-11T16:44:40.667Z,98722.13
2018-03-11T16:47:08.287Z,98719.66
2018-03-11T16:49:36.676Z,98713.95
2018-03-11T16:52:05.397Z,98712.89
2018-03-11T16:54:33.060Z,98716.59
2018-03-11T16:57:00.706Z,98711.70
2018-03-11T16:59:28.620Z,98704.87
2018-03-11T17:01:56.229Z,98710.56
2018-03-11T17:04:24.959Z,98704.04
2018-03-11T17:06:53.027Z,98700.56
2018-03-11T17:09:21.206Z,98704.60
2018-03-11T17:11:48.789Z,98709.91
2018-03-11T17:14:16.430Z,98716.30
2018-03-11T17:16:44.041Z,98720.79
2018-03-11T17:19:11.724Z,98716.14
2018-03-11T17:21:39.302Z,98717.88
2018-03-11T17:24:06.958Z,98716.69
2018-03-11T17:26:34.562Z,98713.73
2018-03-11T17:29:02.310Z,98721.98
2018-03-11T17:31:29.970Z,98721.69
2018-03-11T17:33:57.608Z,98726.58
2018-03-11T17:36:25.277Z,98727.00
2018-03-11T17:38:52.906Z,98719.59
2018-03-11T17:41:20.501Z,98720.92
2018-03-11T17:43:48.145Z,98717.02
2018-03-11T17:46:15.742Z,98724.73
2018-03-11T17:48:43.348Z,98726.30
2018-03-11T17:51:10.952Z,98728.55
2018-03-11T17:53:38.588Z,98722.53
2018-03-11T17:56:06.180Z,98724.21
2018-03-11T17:58:33.811Z,98727.84
2018-03-11T18:01:01.416Z,98729.88
2018-03-11T18:03:29.270Z,98734.75
2018-03-11T18:05:56.871Z,98734.73
2018-03-11T18:08:24.497Z,98741.02
2018-03-11T18:10:52.083Z,98748.19
2018-03-11T18:13:19.712Z,98756.74
2018-03-11T18:15:47.319Z,98756.53
2018-03-11T18:18:14.940Z,98750.34
2018-03-11T18:20:42.600Z,98760.58
2018-03-11T18:23:10.187Z,98759.23
2018-03-11T18:25:37.790Z,98757.20
2018-03-11T18:28:05.455Z,98752.34
2018-03-11T18:30:33.118Z,98750.25
2018-03-11T18:33:00.758Z,98743.83
2018-03-11T18:35:28.413Z,98741.03
2018-03-11T18:37:56.096Z,98742.38
2018-03-11T18:40:23.714Z,98735.41
2018-03-11T18:42:51.422Z,98732.72
2018-03-11T18:45:19.024Z,98732.41
2018-03-11T18:47:46.667Z,98736.17
2018-03-11T18:50:14.283Z,98733.52
2018-03-11T18:52:41.898Z,98735.86
2018-03-11T18:55:09.505Z,98730.98
2018-03-11T18:57:37.131Z,98737.63
2018-03-11T19:00:04.715Z,98731.92
2018-03-11T19:02:32.348Z,98725.94
2018-03-11T19:04:59.946Z,98727.63
2018-03-11T19:07:27.598Z,98731.13
2018-03-11T19:09:55.266Z,98738.19
2018-03-11T19:12:22.894Z,98738.70
2018-03-11T19:14:50.494Z,98740.02
2018-03-11T19:17:18.186Z,98734.35
2018-03-11T19:19:45.777Z,98730.27
2018-03-11T19:22:13.439Z,98738.84
2018-03-11T19:24:41.040Z,98731.22
2018-03-11T19:27:08.734Z,98737.39
2018-03-11T19:29:38.443Z,98743.64
2018-03-11T19:32:06.158Z,98740.88
2018-03-11T19:34:33.772Z,98746.86
2018-03-11T19:37:01.420Z,98732.17
2018-03-11T19:39:29.023Z,98729.20
2018-03-11T19:41:56.639Z,98731.06
2018-03-11T19:44:24.262Z,98730.61
2018-03-11T19:46:51.895Z,98727.21
2018-03-11T19:49:19.654Z,98718.95
2018-03-11T19:51:47.333Z,98725.93
2018-03-11T19:54:14.938Z,98729.38
2018-03-11T19:56:42.547Z,98723.25
2018-03-11T19:59:10.287Z,98730.03
2018-03-11T20:01:37.906Z,98733.88
2018-03-11T20:04:05.649Z,98735.08
2018-03-11T20:06:33.253Z,98736.06
2018-03-11T20:09:00.936Z,98736.06
2018-03-11T20:11:28.555Z,98734.14
2018-03-11T20:13:56.207Z,98731.70
2018-03-11T20:16:23.799Z,98722.81
2018-03-11T20:18:51.652Z,98722.22
2018-03-11T20:21:19.255Z,98721.69
2018-03-11T20:23:47.112Z,98727.77
2018-03-11T20:26:14.703Z,98728.34
2018-03-11T20:28:42.361Z,98725.73
2018-03-11T20:31:09.977Z,98718.82
2018-03-11T20:33:37.600Z,98715.41
2018-03-11T20:36:05.220Z,98711.88
2018-03-11T20:38:32.872Z,98706.34
2018-03-11T20:41:00.517Z,98708.33
2018-03-11T20:43:28.247Z,98707.72
2018-03-11T20:45:55.862Z,98704.07
2018-03-11T20:48:23.531Z,98703.78
2018-03-11T20:50:51.154Z,98700.24
2018-03-11T20:53:18.787Z,98698.41
2018-03-11T20:55:46.426Z,98705.36
2018-03-11T20:58:14.115Z,98699.34
2018-03-11T21:00:41.723Z,98702.60
2018-03-11T21:03:09.342Z,98701.46
2018-03-11T21:05:37.010Z,98689.50
2018-03-11T21:08:04.686Z,98701.50
2018-03-11T21:10:32.270Z,98706.80
2018-03-11T21:12:59.974Z,98705.70
2018-03-11T21:15:27.523Z,98707.83
2018-03-11T21:17:55.159Z,98706.81
2018-03-11T21:20:22.769Z,98712.10
2018-03-11T21:22:50.391Z,98709.09
2018-03-11T21:25:18.040Z,98709.30
2018-03-11T21:27:45.662Z,98711.53
2018-03-11T21:30:13.281Z,98716.01
2018-03-11T21:32:40.926Z,98725.28
2018-03-11T21:35:08.534Z,98714.70
2018-03-11T21:37:36.199Z,98710.92
2018-03-11T21:40:03.791Z,98710.80
2018-03-11T21:42:31.438Z,98712.30
2018-03-11T21:44:59.097Z,98707.83
2018-03-11T21:47:26.903Z,98708.06
2018-03-11T21:49:54.536Z,98710.19
2018-03-11T21:52:22.211Z,98713.27
2018-03-11T21:54:49.845Z,98709.45
2018-03-11T21:57:17.489Z,98711.04
2018-03-11T21:59:45.227Z,98712.75
2018-03-11T22:02:12.880Z,98706.61
2018-03-11T22:04:40.482Z,98706.00
2018-03-11T22:07:08.118Z,98693.06
2018-03-11T22:09:35.716Z,98691.73
2018-03-11T22:12:03.306Z,98691.80
2018-03-11T22:14:30.975Z,98688.48
2018-03-11T22:16:58.576Z,98690.09
2018-03-11T22:19:26.241Z,98695.00
2018-03-11T22:21:53.855Z,98691.38
2018-03-11T22:24:21.497Z,98678.66
2018-03-11T22:26:49.140Z,98673.64
2018-03-11T22:29:16.837Z,98677.18
2018-03-11T22:31:44.438Z,98667.02
2018-03-11T22:34:12.103Z,98665.22
2018-03-11T22:36:39.710Z,98660.00
2018-03-11T22:39:07.467Z,98655.83
2018-03-11T22:41:35.062Z,98654.95
2018-03-11T22:44:02.699Z,98663.08
2018-03-11T22:46:30.304Z,98656.45
2018-03-11T22:48:57.972Z,98654.63
2018-03-11T22:51:25.674Z,98650.77
2018-03-11T22:53:53.256Z,98648.96
2018-03-11T22:56:20.898Z,98642.50
2018-03-11T22:58:48.558Z,98644.95
2018-03-11T23:01:16.199Z,98652.56
2018-03-11T23:03:43.991Z,98655.66
2018-03-11T23:06:11.655Z,98651.59
2018-03-11T23:08:39.314Z,98648.22
2018-03-11T23:11:07.081Z,98645.02
2018-03-11T23:13:34.750Z,98639.05
2018-03-11T23:16:02.381Z,98640.81
2018-03-11T23:18:30.017Z,98640.92
2018-03-11T23:20:57.626Z,98638.80
2018-03-11T23:23:25.341Z,98634.13
2018-03-11T23:25:52.954Z,98638.88
2018-03-11T23:28:20.577Z,98636.11
2018-03-11T23:30:48.197Z,98646.21
2018-03-11T23:33:15.814Z,98637.64
2018-03-11T23:35:43.425Z,98640.53
2018-03-11T23:38:11.026Z,98637.77
2018-03-11T23:40:38.772Z,98635.81
2018-03-11T23:43:06.387Z,98639.91
2018-03-11T23:45:33.991Z,98640.85
2018-03-11T23:48:01.650Z,98643.29
2018-03-11T23:50:29.303Z,98650.55
2018-03-11T23:52:57.250Z,98649.28
2018-03-11T23:55:24.895Z,98642.03
2018-03-11T23:57:52.527Z,98643.00
